METAR AND TAF INFORMATION
METAR FOR EHGR
ADDS - METARS form results

(1424 UTC 18 July 2018)
Data provider http://aviationweather.gov/adds/metars/
 
METAR text: EHGR 181355Z AUTO VRB02KT 9999 BKN060 25/08 Q1018 BLU VRB03KT CAVOK
Conditions at: EHGR (GILZE-RIJEN RNLA, NL) observed 1355 UTC 18 July 2018
Temperature: 25.0°C (77°F)
Dewpoint: 8.0°C (46°F) [RH = 34%]
Pressure (altimeter): 30.06 inches Hg (1018.0 mb)
Winds: variable direction winds at 2 MPH (2 knots; 1.0 m/s)
Visibility: 6 or more miles (10+ km)
Ceiling: 6000 feet AGL
Clouds: broken clouds at 6000 feet AGL
Weather: no significant weather observed at this time

METAR text: EHGR 181325Z AUTO VRB05G17KT 9999 NCD 27/09 Q1018 BLU VRB03KT CAVOK
Conditions at: EHGR (GILZE-RIJEN RNLA, NL) observed 1325 UTC 18 July 2018
Temperature: 27.0°C (81°F)
Dewpoint: 9.0°C (48°F) [RH = 32%]
Pressure (altimeter): 30.06 inches Hg (1018.0 mb)
Winds: variable direction winds at 6 MPH (5 knots; 2.6 m/s)
gusting to 20 MPH (17 knots; 8.8 m/s)
Visibility: 6 or more miles (10+ km)
Ceiling: at least 12,000 feet AGL
Clouds: sky clear below 12,000 feet AGL
Weather: no significant weather observed at this time

Forecast for: EHGR (GILZE-RIJEN RNLA, NL)
Text: TAF EHGR 181014Z 1813/1901 VRB03KT CAVOK
Forecast period: 1300 to 1400 UTC 18 July 2018
Forecast type: FROM: standard forecast or significant change
Winds: variable direction winds at 3 MPH (3 knots; 1.6 m/s)
Visibility: 6 or more miles (10+ km)
Clouds: not forecast
Weather: NSW  (no significant weather)
Text: BECMG 1814/1817 32007KT
Forecast period: 1400 to 2000 UTC 18 July 2018
Forecast type: BECOMING: Conditions expected to become as follows by 1700 UTC 18 July 2018
Winds: from the NW (320 degrees) at 8 MPH (7 knots; 3.6 m/s)
Visibility: 6 or more miles (10+ km)
Weather: NSW  (no significant weather)
Text: BECMG 1820/1822 VRB03KT
Forecast period: 2000 UTC 18 July 2018 to 0100 UTC 19 July 2018
Forecast type: BECOMING: Conditions expected to become as follows by 2200 UTC 18 July 2018
Winds: variable direction winds at 3 MPH (3 knots; 1.6 m/s)
Visibility: 6 or more miles (10+ km)
Weather: NSW  (no significant weather)

 AIRPORT MAP

 RUNWAY INFORMATION
Runway 02 Runway length 6549 ft Runway width 98 ft
Runway elevation 49 ft Runway displaced threshold 191 ft Runway heading 18
Runway 20 Runway length 6549 ft Runway width 98 ft
Runway elevation 40 ft Runway displaced threshold 192 ft Runway heading 198
Runway 10 Runway length 9118 ft Runway width 148 ft
Runway elevation 42 ft Runway displaced threshold 427 ft Runway heading 100
Runway 28 Runway length 9118 ft Runway width 148 ft
Runway elevation 38 ft Runway displaced threshold 331 ft Runway heading 280

 AIRPORT FREQUENCIES
Type ARR Name RAPCON WES Frequency 123.575 MHZ
Type GND Name GND Frequency 23.492 MHZ
Type TWR Name TWR Frequency 125.325 MHZ

 AIRPORT NEAR NAVIGATION AIDS
Type TACAN Name Gilze Rijen Frequency 116400 KHZ